sensor_id;sensor_type;location;lat;lon;timestamp;noise_LAeq;noise_LA_min;noise_LA_max;noise_LA01;noise_LA95
45964;Laerm;31671;48.092;11.842;2023-03-24T00:00:51;29.44;27.97;40.48;;
45964;Laerm;31671;48.092;11.842;2023-03-24T00:03:16;34.87;27.98;57.60;;
45964;Laerm;31671;48.092;11.842;2023-03-24T00:05:42;31.84;27.85;49.61;;
45964;Laerm;31671;48.092;11.842;2023-03-24T00:08:08;29.81;27.93;46.90;;
45964;Laerm;31671;48.092;11.842;2023-03-24T00:10:33;29.45;27.85;40.06;;
45964;Laerm;31671;48.092;11.842;2023-03-24T00:12:59;29.52;27.69;42.34;;
45964;Laerm;31671;48.092;11.842;2023-03-24T00:15:28;30.93;27.90;43.92;;
45964;Laerm;31671;48.092;11.842;2023-03-24T00:17:54;29.23;28.05;34.32;;
45964;Laerm;31671;48.092;11.842;2023-03-24T00:20:20;29.91;28.07;35.68;;
45964;Laerm;31671;48.092;11.842;2023-03-24T00:22:47;29.21;27.82;30.49;;
45964;Laerm;31671;48.092;11.842;2023-03-24T00:25:14;29.18;27.76;30.34;;
45964;Laerm;31671;48.092;11.842;2023-03-24T00:27:40;29.09;27.88;30.44;;
45964;Laerm;31671;48.092;11.842;2023-03-24T00:30:06;29.19;27.85;32.69;;
45964;Laerm;31671;48.092;11.842;2023-03-24T00:32:33;29.22;27.88;31.48;;
45964;Laerm;31671;48.092;11.842;2023-03-24T00:34:59;29.19;27.63;34.27;;
45964;Laerm;31671;48.092;11.842;2023-03-24T00:37:25;29.87;27.66;46.38;;
45964;Laerm;31671;48.092;11.842;2023-03-24T00:39:51;35.37;27.86;55.37;;
45964;Laerm;31671;48.092;11.842;2023-03-24T00:42:16;33.37;27.75;49.99;;
45964;Laerm;31671;48.092;11.842;2023-03-24T00:44:42;38.99;27.82;56.90;;
45964;Laerm;31671;48.092;11.842;2023-03-24T00:47:08;38.07;28.13;58.44;;
45964;Laerm;31671;48.092;11.842;2023-03-24T00:49:33;30.64;28.21;48.98;;
45964;Laerm;31671;48.092;11.842;2023-03-24T00:51:59;29.34;28.04;33.04;;
45964;Laerm;31671;48.092;11.842;2023-03-24T00:54:25;29.66;27.69;38.35;;
45964;Laerm;31671;48.092;11.842;2023-03-24T00:56:51;29.97;28.06;41.44;;
45964;Laerm;31671;48.092;11.842;2023-03-24T00:59:16;31.00;28.14;49.72;;
45964;Laerm;31671;48.092;11.842;2023-03-24T01:01:42;32.72;27.98;55.27;;
45964;Laerm;31671;48.092;11.842;2023-03-24T01:04:08;35.01;28.16;55.32;;
45964;Laerm;31671;48.092;11.842;2023-03-24T01:06:36;32.28;27.78;47.50;;
45964;Laerm;31671;48.092;11.842;2023-03-24T01:09:03;38.03;28.11;60.10;;
45964;Laerm;31671;48.092;11.842;2023-03-24T01:11:29;31.10;28.09;47.29;;
45964;Laerm;31671;48.092;11.842;2023-03-24T01:13:58;42.43;28.04;62.89;;
45964;Laerm;31671;48.092;11.842;2023-03-24T01:16:24;40.91;27.97;62.17;;
45964;Laerm;31671;48.092;11.842;2023-03-24T01:18:50;35.85;28.19;60.65;;
45964;Laerm;31671;48.092;11.842;2023-03-24T01:21:16;29.78;28.05;48.39;;
45964;Laerm;31671;48.092;11.842;2023-03-24T01:23:41;32.39;28.03;51.44;;
45964;Laerm;31671;48.092;11.842;2023-03-24T01:26:08;29.63;27.97;42.12;;
45964;Laerm;31671;48.092;11.842;2023-03-24T01:28:34;29.72;27.95;42.14;;
45964;Laerm;31671;48.092;11.842;2023-03-24T01:31:00;32.85;28.16;50.54;;
45964;Laerm;31671;48.092;11.842;2023-03-24T01:33:26;30.71;28.11;47.89;;
45964;Laerm;31671;48.092;11.842;2023-03-24T01:35:52;29.76;28.07;43.60;;
45964;Laerm;31671;48.092;11.842;2023-03-24T01:38:17;30.34;27.98;46.64;;
45964;Laerm;31671;48.092;11.842;2023-03-24T01:40:44;30.14;28.06;45.88;;
45964;Laerm;31671;48.092;11.842;2023-03-24T01:43:15;29.57;27.89;32.17;;
45964;Laerm;31671;48.092;11.842;2023-03-24T01:45:43;29.77;28.13;33.04;;
45964;Laerm;31671;48.092;11.842;2023-03-24T01:48:16;29.35;27.98;30.61;;
45964;Laerm;31671;48.092;11.842;2023-03-24T01:50:44;29.34;27.59;30.47;;
45964;Laerm;31671;48.092;11.842;2023-03-24T01:53:10;29.30;27.91;30.87;;
45964;Laerm;31671;48.092;11.842;2023-03-24T01:55:37;29.25;27.94;30.99;;
45964;Laerm;31671;48.092;11.842;2023-03-24T01:58:03;29.26;27.88;30.49;;
45964;Laerm;31671;48.092;11.842;2023-03-24T02:00:39;29.21;27.84;31.85;;
45964;Laerm;31671;48.092;11.842;2023-03-24T02:05:54;29.36;27.85;31.75;;
45964;Laerm;31671;48.092;11.842;2023-03-24T02:08:22;29.18;27.83;30.72;;
45964;Laerm;31671;48.092;11.842;2023-03-24T02:10:50;29.11;27.84;30.26;;
45964;Laerm;31671;48.092;11.842;2023-03-24T02:13:17;29.55;27.71;33.65;;
45964;Laerm;31671;48.092;11.842;2023-03-24T02:16:26;29.11;27.86;30.32;;
45964;Laerm;31671;48.092;11.842;2023-03-24T02:18:35;29.07;27.87;31.04;;
45964;Laerm;31671;48.092;11.842;2023-03-24T02:37:08;29.07;27.57;30.24;;
45964;Laerm;31671;48.092;11.842;2023-03-24T02:42:24;28.98;27.55;30.09;;
45964;Laerm;31671;48.092;11.842;2023-03-24T02:47:20;30.68;27.87;36.44;;
45964;Laerm;31671;48.092;11.842;2023-03-24T02:52:22;29.01;27.63;30.32;;
45964;Laerm;31671;48.092;11.842;2023-03-24T02:57:39;28.98;27.75;30.17;;
45964;Laerm;31671;48.092;11.842;2023-03-24T03:03:05;29.47;27.70;33.23;;
45964;Laerm;31671;48.092;11.842;2023-03-24T03:05:34;28.99;27.85;30.17;;
45964;Laerm;31671;48.092;11.842;2023-03-24T03:08:01;28.96;27.72;30.46;;
45964;Laerm;31671;48.092;11.842;2023-03-24T03:10:34;28.95;27.72;30.23;;
45964;Laerm;31671;48.092;11.842;2023-03-24T03:13:04;29.99;27.66;35.17;;
45964;Laerm;31671;48.092;11.842;2023-03-24T03:15:34;28.97;27.57;30.20;;
45964;Laerm;31671;48.092;11.842;2023-03-24T03:20:30;28.99;27.69;30.40;;
45964;Laerm;31671;48.092;11.842;2023-03-24T03:23:02;29.74;27.54;36.84;;
45964;Laerm;31671;48.092;11.842;2023-03-24T03:25:31;28.98;27.66;30.29;;
45964;Laerm;31671;48.092;11.842;2023-03-24T03:27:58;29.08;27.52;30.19;;
45964;Laerm;31671;48.092;11.842;2023-03-24T03:30:27;29.07;27.82;31.16;;
45964;Laerm;31671;48.092;11.842;2023-03-24T03:32:58;29.20;27.61;39.52;;
45964;Laerm;31671;48.092;11.842;2023-03-24T03:40:19;30.20;27.57;46.85;;
45964;Laerm;31671;48.092;11.842;2023-03-24T03:42:51;31.70;27.88;45.08;;
45964;Laerm;31671;48.092;11.842;2023-03-24T03:45:17;31.31;27.97;49.18;;
45964;Laerm;31671;48.092;11.842;2023-03-24T03:47:43;29.59;27.79;40.31;;
45964;Laerm;31671;48.092;11.842;2023-03-24T03:50:09;29.17;27.82;37.77;;
45964;Laerm;31671;48.092;11.842;2023-03-24T03:52:38;29.19;27.73;35.65;;
45964;Laerm;31671;48.092;11.842;2023-03-24T03:55:04;29.04;27.53;30.50;;
45964;Laerm;31671;48.092;11.842;2023-03-24T03:57:30;29.16;27.57;36.65;;
45964;Laerm;31671;48.092;11.842;2023-03-24T04:00:16;29.82;27.67;47.80;;
45964;Laerm;31671;48.092;11.842;2023-03-24T04:08:13;29.29;27.64;41.98;;
45964;Laerm;31671;48.092;11.842;2023-03-24T04:11:24;29.09;27.65;36.70;;
45964;Laerm;31671;48.092;11.842;2023-03-24T04:30:04;30.54;27.86;44.61;;
45964;Laerm;31671;48.092;11.842;2023-03-24T04:32:38;33.57;28.13;51.00;;
45964;Laerm;31671;48.092;11.842;2023-03-24T04:35:09;33.54;28.06;48.96;;
45964;Laerm;31671;48.092;11.842;2023-03-24T04:38:03;31.83;27.67;45.10;;
45964;Laerm;31671;48.092;11.842;2023-03-24T04:40:33;31.08;28.10;43.12;;
45964;Laerm;31671;48.092;11.842;2023-03-24T04:43:00;30.01;28.10;38.09;;
45964;Laerm;31671;48.092;11.842;2023-03-24T04:45:28;30.11;28.30;39.52;;
45964;Laerm;31671;48.092;11.842;2023-03-24T04:48:17;30.50;28.00;43.81;;
45964;Laerm;31671;48.092;11.842;2023-03-24T04:51:01;32.32;28.29;44.20;;
45964;Laerm;31671;48.092;11.842;2023-03-24T04:53:38;30.98;28.08;44.82;;
45964;Laerm;31671;48.092;11.842;2023-03-24T04:58:49;32.15;28.15;48.58;;
45964;Laerm;31671;48.092;11.842;2023-03-24T05:01:15;39.46;28.03;60.19;;
45964;Laerm;31671;48.092;11.842;2023-03-24T05:03:44;43.90;28.53;62.71;;
45964;Laerm;31671;48.092;11.842;2023-03-24T05:06:10;37.46;28.17;57.65;;
45964;Laerm;31671;48.092;11.842;2023-03-24T05:08:36;29.77;28.24;37.58;;
45964;Laerm;31671;48.092;11.842;2023-03-24T05:11:01;41.53;28.04;57.47;;
45964;Laerm;31671;48.092;11.842;2023-03-24T05:13:28;36.78;28.41;56.24;;
45964;Laerm;31671;48.092;11.842;2023-03-24T05:15:58;42.79;28.42;63.86;;
45964;Laerm;31671;48.092;11.842;2023-03-24T05:18:30;29.94;28.23;49.52;;
45964;Laerm;31671;48.092;11.842;2023-03-24T05:20:56;32.34;28.03;51.31;;
45964;Laerm;31671;48.092;11.842;2023-03-24T05:23:22;37.68;28.14;55.16;;
45964;Laerm;31671;48.092;11.842;2023-03-24T05:25:49;31.92;28.14;50.05;;
45964;Laerm;31671;48.092;11.842;2023-03-24T05:28:16;36.21;28.36;55.32;;
45964;Laerm;31671;48.092;11.842;2023-03-24T05:30:42;33.80;28.17;53.02;;
45964;Laerm;31671;48.092;11.842;2023-03-24T05:33:18;35.93;28.45;50.76;;
45964;Laerm;31671;48.092;11.842;2023-03-24T05:35:44;42.09;28.24;60.81;;
45964;Laerm;31671;48.092;11.842;2023-03-24T05:38:10;29.70;27.81;38.08;;
45964;Laerm;31671;48.092;11.842;2023-03-24T05:40:37;29.86;28.02;45.60;;
45964;Laerm;31671;48.092;11.842;2023-03-24T05:43:11;32.65;27.95;49.17;;
45964;Laerm;31671;48.092;11.842;2023-03-24T05:45:41;29.23;27.86;31.48;;
45964;Laerm;31671;48.092;11.842;2023-03-24T05:48:08;29.46;27.97;34.50;;
45964;Laerm;31671;48.092;11.842;2023-03-24T05:50:54;31.31;28.16;45.81;;
45964;Laerm;31671;48.092;11.842;2023-03-24T05:53:20;29.62;27.68;43.89;;
45964;Laerm;31671;48.092;11.842;2023-03-24T05:56:18;29.63;27.93;40.02;;
45964;Laerm;31671;48.092;11.842;2023-03-24T05:59:09;30.35;28.00;38.61;;
45964;Laerm;31671;48.092;11.842;2023-03-24T06:01:55;29.71;27.99;35.76;;
45964;Laerm;31671;48.092;11.842;2023-03-24T06:04:53;29.47;27.72;35.26;;
45964;Laerm;31671;48.092;11.842;2023-03-24T06:07:21;29.57;27.91;33.49;;
45964;Laerm;31671;48.092;11.842;2023-03-24T06:09:47;29.80;28.08;32.67;;
45964;Laerm;31671;48.092;11.842;2023-03-24T06:12:14;29.82;28.02;41.02;;
45964;Laerm;31671;48.092;11.842;2023-03-24T06:14:48;29.49;27.87;32.10;;
45964;Laerm;31671;48.092;11.842;2023-03-24T06:17:13;29.29;27.96;31.83;;
45964;Laerm;31671;48.092;11.842;2023-03-24T06:19:41;29.37;27.92;32.11;;
45964;Laerm;31671;48.092;11.842;2023-03-24T06:22:16;29.23;27.73;34.51;;
45964;Laerm;31671;48.092;11.842;2023-03-24T06:24:43;29.95;27.68;35.02;;
45964;Laerm;31671;48.092;11.842;2023-03-24T06:27:10;29.60;27.53;35.64;;
45964;Laerm;31671;48.092;11.842;2023-03-24T06:29:35;29.38;27.86;36.71;;
45964;Laerm;31671;48.092;11.842;2023-03-24T06:32:02;29.40;27.84;35.19;;
45964;Laerm;31671;48.092;11.842;2023-03-24T06:34:29;29.55;27.73;39.06;;
45964;Laerm;31671;48.092;11.842;2023-03-24T06:37:12;29.47;27.80;40.32;;
45964;Laerm;31671;48.092;11.842;2023-03-24T06:39:37;29.93;28.03;34.75;;
45964;Laerm;31671;48.092;11.842;2023-03-24T06:42:03;29.55;27.96;33.33;;
45964;Laerm;31671;48.092;11.842;2023-03-24T06:44:29;29.63;27.95;37.56;;
45964;Laerm;31671;48.092;11.842;2023-03-24T06:46:55;29.55;27.73;38.28;;
45964;Laerm;31671;48.092;11.842;2023-03-24T06:49:21;29.88;27.67;39.09;;
45964;Laerm;31671;48.092;11.842;2023-03-24T06:51:47;31.68;27.95;48.41;;
45964;Laerm;31671;48.092;11.842;2023-03-24T06:54:14;30.27;28.13;42.99;;
45964;Laerm;31671;48.092;11.842;2023-03-24T06:56:40;30.03;28.12;41.35;;
45964;Laerm;31671;48.092;11.842;2023-03-24T06:59:06;29.65;28.23;34.08;;
45964;Laerm;31671;48.092;11.842;2023-03-24T07:01:32;29.47;28.07;33.38;;
45964;Laerm;31671;48.092;11.842;2023-03-24T07:04:14;29.38;27.99;35.91;;
45964;Laerm;31671;48.092;11.842;2023-03-24T07:06:50;29.42;28.00;33.42;;
45964;Laerm;31671;48.092;11.842;2023-03-24T07:09:17;29.87;28.00;35.71;;
45964;Laerm;31671;48.092;11.842;2023-03-24T07:11:43;30.22;27.76;41.37;;
45964;Laerm;31671;48.092;11.842;2023-03-24T07:14:08;31.50;28.08;48.31;;
45964;Laerm;31671;48.092;11.842;2023-03-24T07:16:35;35.64;28.10;52.40;;
45964;Laerm;31671;48.092;11.842;2023-03-24T07:19:21;32.16;28.07;51.03;;
45964;Laerm;31671;48.092;11.842;2023-03-24T07:21:54;29.58;28.09;34.67;;
45964;Laerm;31671;48.092;11.842;2023-03-24T07:24:31;29.83;28.19;38.75;;
45964;Laerm;31671;48.092;11.842;2023-03-24T07:27:04;29.67;28.29;38.06;;
45964;Laerm;31671;48.092;11.842;2023-03-24T07:29:32;29.76;28.26;33.82;;
45964;Laerm;31671;48.092;11.842;2023-03-24T07:32:20;29.68;28.19;34.16;;
45964;Laerm;31671;48.092;11.842;2023-03-24T07:34:46;29.41;27.84;33.65;;
45964;Laerm;31671;48.092;11.842;2023-03-24T07:37:12;29.47;28.25;32.32;;
45964;Laerm;31671;48.092;11.842;2023-03-24T07:39:37;29.43;27.96;31.86;;
45964;Laerm;31671;48.092;11.842;2023-03-24T07:42:04;29.21;27.71;30.98;;
45964;Laerm;31671;48.092;11.842;2023-03-24T07:44:47;29.34;27.91;32.51;;
45964;Laerm;31671;48.092;11.842;2023-03-24T07:47:13;29.43;27.75;31.76;;
45964;Laerm;31671;48.092;11.842;2023-03-24T07:49:39;29.43;27.86;35.51;;
45964;Laerm;31671;48.092;11.842;2023-03-24T07:52:07;29.18;27.70;33.99;;
45964;Laerm;31671;48.092;11.842;2023-03-24T07:54:39;29.36;27.69;33.07;;
45964;Laerm;31671;48.092;11.842;2023-03-24T07:57:04;29.21;27.65;32.95;;
45964;Laerm;31671;48.092;11.842;2023-03-24T07:59:30;29.41;27.88;33.33;;
45964;Laerm;31671;48.092;11.842;2023-03-24T08:02:19;29.14;27.63;33.01;;
45964;Laerm;31671;48.092;11.842;2023-03-24T08:04:50;29.33;27.72;33.62;;
45964;Laerm;31671;48.092;11.842;2023-03-24T08:07:35;29.77;27.81;35.25;;
45964;Laerm;31671;48.092;11.842;2023-03-24T08:10:01;29.67;27.79;35.29;;
45964;Laerm;31671;48.092;11.842;2023-03-24T08:12:26;29.12;27.77;31.64;;
45964;Laerm;31671;48.092;11.842;2023-03-24T08:14:52;29.46;27.82;32.63;;
45964;Laerm;31671;48.092;11.842;2023-03-24T08:17:18;29.45;27.74;37.96;;
45964;Laerm;31671;48.092;11.842;2023-03-24T08:19:43;29.44;27.84;34.33;;
45964;Laerm;31671;48.092;11.842;2023-03-24T08:22:10;30.43;28.06;37.18;;
45964;Laerm;31671;48.092;11.842;2023-03-24T08:24:35;29.66;28.05;35.58;;
45964;Laerm;31671;48.092;11.842;2023-03-24T08:27:01;29.39;28.05;37.31;;
45964;Laerm;31671;48.092;11.842;2023-03-24T08:29:27;29.39;27.94;35.35;;
45964;Laerm;31671;48.092;11.842;2023-03-24T08:31:52;29.59;27.96;37.17;;
45964;Laerm;31671;48.092;11.842;2023-03-24T08:34:18;29.23;27.93;35.24;;
45964;Laerm;31671;48.092;11.842;2023-03-24T08:36:44;29.52;27.91;35.19;;
45964;Laerm;31671;48.092;11.842;2023-03-24T08:39:10;29.45;27.65;35.46;;
45964;Laerm;31671;48.092;11.842;2023-03-24T08:41:35;29.38;27.88;34.26;;
45964;Laerm;31671;48.092;11.842;2023-03-24T08:44:01;29.91;27.78;38.93;;
45964;Laerm;31671;48.092;11.842;2023-03-24T08:46:28;29.92;27.77;36.17;;
45964;Laerm;31671;48.092;11.842;2023-03-24T08:48:54;29.71;27.79;34.52;;
45964;Laerm;31671;48.092;11.842;2023-03-24T08:51:19;29.31;27.78;37.88;;
45964;Laerm;31671;48.092;11.842;2023-03-24T08:53:45;29.35;27.78;33.95;;
45964;Laerm;31671;48.092;11.842;2023-03-24T08:56:10;29.31;27.78;33.81;;
45964;Laerm;31671;48.092;11.842;2023-03-24T08:58:36;29.49;27.75;35.52;;
45964;Laerm;31671;48.092;11.842;2023-03-24T09:01:02;29.40;27.73;35.30;;
45964;Laerm;31671;48.092;11.842;2023-03-24T09:03:28;29.39;28.21;32.74;;
45964;Laerm;31671;48.092;11.842;2023-03-24T09:05:57;29.72;28.18;34.21;;
45964;Laerm;31671;48.092;11.842;2023-03-24T09:08:23;29.86;28.24;38.09;;
45964;Laerm;31671;48.092;11.842;2023-03-24T09:10:49;29.37;27.64;31.70;;
45964;Laerm;31671;48.092;11.842;2023-03-24T09:13:14;29.44;28.03;32.19;;
45964;Laerm;31671;48.092;11.842;2023-03-24T09:15:47;29.49;27.96;34.43;;
45964;Laerm;31671;48.092;11.842;2023-03-24T09:18:13;29.49;27.98;38.56;;
45964;Laerm;31671;48.092;11.842;2023-03-24T09:20:38;29.39;27.94;33.63;;
45964;Laerm;31671;48.092;11.842;2023-03-24T09:23:04;30.02;28.11;42.70;;
45964;Laerm;31671;48.092;11.842;2023-03-24T09:25:30;29.44;28.03;33.17;;
45964;Laerm;31671;48.092;11.842;2023-03-24T09:27:55;29.42;28.26;31.08;;
45964;Laerm;31671;48.092;11.842;2023-03-24T09:30:21;29.52;28.14;32.50;;
45964;Laerm;31671;48.092;11.842;2023-03-24T09:32:47;29.98;28.29;35.77;;
45964;Laerm;31671;48.092;11.842;2023-03-24T09:35:13;29.61;28.05;35.39;;
45964;Laerm;31671;48.092;11.842;2023-03-24T09:37:39;29.48;28.17;32.26;;
45964;Laerm;31671;48.092;11.842;2023-03-24T09:40:05;29.90;28.15;39.27;;
45964;Laerm;31671;48.092;11.842;2023-03-24T09:42:32;30.50;28.15;53.07;;
45964;Laerm;31671;48.092;11.842;2023-03-24T09:44:59;29.70;28.21;36.45;;
45964;Laerm;31671;48.092;11.842;2023-03-24T09:47:29;30.26;28.08;51.98;;
45964;Laerm;31671;48.092;11.842;2023-03-24T09:49:58;29.67;28.19;36.18;;
45964;Laerm;31671;48.092;11.842;2023-03-24T09:52:31;29.90;28.02;34.02;;
45964;Laerm;31671;48.092;11.842;2023-03-24T09:54:58;29.40;27.99;40.85;;
45964;Laerm;31671;48.092;11.842;2023-03-24T09:57:25;29.61;27.77;44.78;;
45964;Laerm;31671;48.092;11.842;2023-03-24T09:59:52;29.59;27.81;44.72;;
45964;Laerm;31671;48.092;11.842;2023-03-24T10:02:19;29.53;27.98;39.49;;
45964;Laerm;31671;48.092;11.842;2023-03-24T10:04:45;29.54;27.79;44.69;;
45964;Laerm;31671;48.092;11.842;2023-03-24T10:09:36;29.57;28.01;38.96;;
45964;Laerm;31671;48.092;11.842;2023-03-24T10:14:50;31.12;27.83;50.69;;
45964;Laerm;31671;48.092;11.842;2023-03-24T10:17:34;33.20;27.85;55.31;;
45964;Laerm;31671;48.092;11.842;2023-03-24T10:22:35;30.54;28.03;55.56;;
45964;Laerm;31671;48.092;11.842;2023-03-24T10:27:33;30.05;27.81;54.28;;
45964;Laerm;31671;48.092;11.842;2023-03-24T10:30:03;29.49;27.72;42.67;;
45964;Laerm;31671;48.092;11.842;2023-03-24T10:32:32;30.18;27.83;44.58;;
45964;Laerm;31671;48.092;11.842;2023-03-24T10:35:00;29.62;27.61;33.07;;
45964;Laerm;31671;48.092;11.842;2023-03-24T10:37:26;29.36;27.74;34.33;;
45964;Laerm;31671;48.092;11.842;2023-03-24T10:39:54;29.79;27.97;44.86;;
45964;Laerm;31671;48.092;11.842;2023-03-24T10:42:23;29.86;28.05;38.17;;
45964;Laerm;31671;48.092;11.842;2023-03-24T10:44:49;29.81;27.92;45.47;;
45964;Laerm;31671;48.092;11.842;2023-03-24T10:47:16;29.91;28.00;37.10;;
45964;Laerm;31671;48.092;11.842;2023-03-24T10:49:52;29.47;27.81;36.61;;
45964;Laerm;31671;48.092;11.842;2023-03-24T10:52:18;29.64;27.96;39.52;;
45964;Laerm;31671;48.092;11.842;2023-03-24T10:54:54;29.68;27.96;36.26;;
45964;Laerm;31671;48.092;11.842;2023-03-24T10:57:20;29.65;27.92;47.04;;
45964;Laerm;31671;48.092;11.842;2023-03-24T10:59:51;30.05;27.92;38.21;;
45964;Laerm;31671;48.092;11.842;2023-03-24T11:02:22;29.71;27.97;42.51;;
45964;Laerm;31671;48.092;11.842;2023-03-24T11:04:51;29.73;27.56;35.45;;
45964;Laerm;31671;48.092;11.842;2023-03-24T11:07:19;29.12;27.63;31.50;;
45964;Laerm;31671;48.092;11.842;2023-03-24T11:09:46;29.44;27.77;34.31;;
45964;Laerm;31671;48.092;11.842;2023-03-24T11:12:24;29.84;27.76;45.00;;
45964;Laerm;31671;48.092;11.842;2023-03-24T11:14:50;29.41;27.79;37.33;;
45964;Laerm;31671;48.092;11.842;2023-03-24T11:17:15;29.63;27.86;41.70;;
45964;Laerm;31671;48.092;11.842;2023-03-24T11:19:55;36.94;27.85;61.64;;
45964;Laerm;31671;48.092;11.842;2023-03-24T11:22:21;32.31;28.00;53.03;;
45964;Laerm;31671;48.092;11.842;2023-03-24T11:24:48;31.34;27.62;50.50;;
45964;Laerm;31671;48.092;11.842;2023-03-24T11:27:14;29.24;27.70;36.43;;
45964;Laerm;31671;48.092;11.842;2023-03-24T11:29:40;29.76;27.79;34.09;;
45964;Laerm;31671;48.092;11.842;2023-03-24T11:32:13;36.44;28.10;64.60;;
45964;Laerm;31671;48.092;11.842;2023-03-24T11:34:43;31.08;27.88;51.30;;
45964;Laerm;31671;48.092;11.842;2023-03-24T11:37:20;38.51;27.87;63.71;;
45964;Laerm;31671;48.092;11.842;2023-03-24T11:42:31;30.40;28.06;51.57;;
45964;Laerm;31671;48.092;11.842;2023-03-24T11:44:56;29.46;27.84;41.54;;
45964;Laerm;31671;48.092;11.842;2023-03-24T11:47:32;30.56;27.71;49.31;;
45964;Laerm;31671;48.092;11.842;2023-03-24T11:50:12;38.11;27.73;65.12;;
45964;Laerm;31671;48.092;11.842;2023-03-24T11:52:51;29.45;27.76;40.35;;
45964;Laerm;31671;48.092;11.842;2023-03-24T11:55:20;31.00;27.89;51.80;;
45964;Laerm;31671;48.092;11.842;2023-03-24T11:57:54;31.61;27.79;56.20;;
45964;Laerm;31671;48.092;11.842;2023-03-24T12:00:23;29.49;27.71;44.50;;
45964;Laerm;31671;48.092;11.842;2023-03-24T12:07:59;30.29;27.75;51.62;;
45964;Laerm;31671;48.092;11.842;2023-03-24T12:13:14;29.54;27.91;46.31;;
45964;Laerm;31671;48.092;11.842;2023-03-24T12:18:18;30.51;27.95;46.48;;
45964;Laerm;31671;48.092;11.842;2023-03-24T12:23:43;36.24;28.12;60.38;;
45964;Laerm;31671;48.092;11.842;2023-03-24T12:26:14;34.29;28.42;53.59;;
45964;Laerm;31671;48.092;11.842;2023-03-24T12:33:54;30.39;28.09;51.38;;
45964;Laerm;31671;48.092;11.842;2023-03-24T12:51:56;41.44;28.27;67.00;;
45964;Laerm;31671;48.092;11.842;2023-03-24T12:54:41;35.65;28.13;54.86;;
45964;Laerm;31671;48.092;11.842;2023-03-24T12:57:15;31.55;28.11;49.13;;
45964;Laerm;31671;48.092;11.842;2023-03-24T12:59:52;31.48;27.85;51.92;;
45964;Laerm;31671;48.092;11.842;2023-03-24T13:02:29;29.49;27.98;43.99;;
45964;Laerm;31671;48.092;11.842;2023-03-24T13:04:59;30.08;28.00;49.34;;
45964;Laerm;31671;48.092;11.842;2023-03-24T13:07:25;38.68;27.67;58.59;;
45964;Laerm;31671;48.092;11.842;2023-03-24T13:12:47;30.08;27.74;53.47;;
45964;Laerm;31671;48.092;11.842;2023-03-24T13:15:16;41.58;27.92;74.68;;
45964;Laerm;31671;48.092;11.842;2023-03-24T13:20:18;31.23;27.84;43.22;;
45964;Laerm;31671;48.092;11.842;2023-03-24T13:22:44;32.03;27.73;56.89;;
45964;Laerm;31671;48.092;11.842;2023-03-24T13:25:54;29.19;27.55;37.94;;
45964;Laerm;31671;48.092;11.842;2023-03-24T13:27:59;29.24;27.34;38.70;;
45964;Laerm;31671;48.092;11.842;2023-03-24T13:30:36;29.98;27.67;53.37;;
45964;Laerm;31671;48.092;11.842;2023-03-24T13:33:16;29.65;28.06;39.33;;
45964;Laerm;31671;48.092;11.842;2023-03-24T13:38:27;29.64;27.74;50.53;;
45964;Laerm;31671;48.092;11.842;2023-03-24T13:40:57;29.45;27.83;44.09;;
45964;Laerm;31671;48.092;11.842;2023-03-24T13:43:23;29.79;27.86;38.53;;
45964;Laerm;31671;48.092;11.842;2023-03-24T13:46:05;31.41;28.04;54.14;;
45964;Laerm;31671;48.092;11.842;2023-03-24T13:48:37;35.93;27.61;60.55;;
45964;Laerm;31671;48.092;11.842;2023-03-24T13:51:07;33.12;27.68;55.58;;
45964;Laerm;31671;48.092;11.842;2023-03-24T13:53:53;29.96;27.71;45.75;;
45964;Laerm;31671;48.092;11.842;2023-03-24T13:56:21;29.85;27.51;44.49;;
45964;Laerm;31671;48.092;11.842;2023-03-24T14:01:15;29.70;27.96;41.55;;
45964;Laerm;31671;48.092;11.842;2023-03-24T14:03:44;30.14;27.95;52.11;;
45964;Laerm;31671;48.092;11.842;2023-03-24T14:06:14;29.35;27.80;32.85;;
45964;Laerm;31671;48.092;11.842;2023-03-24T14:14:04;29.57;27.65;49.17;;
45964;Laerm;31671;48.092;11.842;2023-03-24T14:19:17;29.14;27.76;35.01;;
45964;Laerm;31671;48.092;11.842;2023-03-24T14:21:42;29.39;27.90;34.61;;
45964;Laerm;31671;48.092;11.842;2023-03-24T14:24:15;29.25;27.70;35.07;;
45964;Laerm;31671;48.092;11.842;2023-03-24T14:26:41;34.71;28.07;57.66;;
45964;Laerm;31671;48.092;11.842;2023-03-24T14:29:25;29.67;27.99;46.19;;
45964;Laerm;31671;48.092;11.842;2023-03-24T14:31:57;29.36;27.94;39.44;;
45964;Laerm;31671;48.092;11.842;2023-03-24T14:34:25;29.47;27.73;37.29;;
45964;Laerm;31671;48.092;11.842;2023-03-24T14:37:00;29.29;27.80;34.28;;
45964;Laerm;31671;48.092;11.842;2023-03-24T14:39:40;29.72;27.89;38.63;;
45964;Laerm;31671;48.092;11.842;2023-03-24T14:44:52;29.57;28.04;44.41;;
45964;Laerm;31671;48.092;11.842;2023-03-24T14:49:47;31.01;27.98;55.15;;
45964;Laerm;31671;48.092;11.842;2023-03-24T14:52:20;29.82;27.99;40.53;;
45964;Laerm;31671;48.092;11.842;2023-03-24T14:54:52;31.58;27.96;47.24;;
45964;Laerm;31671;48.092;11.842;2023-03-24T15:07:38;34.33;27.81;61.93;;
45964;Laerm;31671;48.092;11.842;2023-03-24T15:10:04;31.55;28.26;52.00;;
45964;Laerm;31671;48.092;11.842;2023-03-24T15:12:31;32.25;28.13;59.72;;
45964;Laerm;31671;48.092;11.842;2023-03-24T15:14:57;45.53;28.31;68.10;;
45964;Laerm;31671;48.092;11.842;2023-03-24T15:17:23;41.99;27.85;64.48;;
45964;Laerm;31671;48.092;11.842;2023-03-24T15:19:52;31.59;27.97;51.34;;
45964;Laerm;31671;48.092;11.842;2023-03-24T15:22:19;30.43;27.86;50.07;;
45964;Laerm;31671;48.092;11.842;2023-03-24T15:24:46;31.46;27.94;47.67;;
45964;Laerm;31671;48.092;11.842;2023-03-24T15:27:22;39.46;27.81;61.91;;
45964;Laerm;31671;48.092;11.842;2023-03-24T15:29:52;29.90;27.78;39.69;;
45964;Laerm;31671;48.092;11.842;2023-03-24T15:32:19;30.94;27.89;48.65;;
45964;Laerm;31671;48.092;11.842;2023-03-24T15:34:47;31.13;27.76;51.29;;
45964;Laerm;31671;48.092;11.842;2023-03-24T15:37:20;30.24;27.90;42.31;;
45964;Laerm;31671;48.092;11.842;2023-03-24T15:39:50;32.90;27.94;59.76;;
45964;Laerm;31671;48.092;11.842;2023-03-24T15:42:16;31.77;27.70;51.68;;
45964;Laerm;31671;48.092;11.842;2023-03-24T15:44:42;42.77;28.06;64.65;;
45964;Laerm;31671;48.092;11.842;2023-03-24T15:47:26;34.66;27.84;56.05;;
45964;Laerm;31671;48.092;11.842;2023-03-24T15:49:53;33.83;27.79;62.91;;
45964;Laerm;31671;48.092;11.842;2023-03-24T15:52:23;33.79;27.86;60.72;;
45964;Laerm;31671;48.092;11.842;2023-03-24T15:54:50;30.58;27.84;49.48;;
45964;Laerm;31671;48.092;11.842;2023-03-24T15:57:17;30.19;27.86;45.07;;
45964;Laerm;31671;48.092;11.842;2023-03-24T15:59:47;30.13;27.76;47.14;;
45964;Laerm;31671;48.092;11.842;2023-03-24T16:02:34;30.14;27.89;47.27;;
45964;Laerm;31671;48.092;11.842;2023-03-24T16:05:00;30.94;28.01;56.70;;
45964;Laerm;31671;48.092;11.842;2023-03-24T16:07:30;30.40;27.69;46.39;;
45964;Laerm;31671;48.092;11.842;2023-03-24T16:09:57;30.52;27.58;48.70;;